CheckWX is a tool to help pilots better visualize weather data.  It is not intended as a substitute for an official pre-flight weather briefing.

14:58:32 UTC

PABR TAF
Wiley Post-Will Rogers Memorial Airport
Barrow, Alaska, USA
PABR 231120Z 2312/2412 08022KT 6SM BLSN BKN015 BKN100 FM231500 08015KT P6SM BKN015 BKN100 FM232000 08012KT P6SM SCT015 BKN100

Mar-23@
12:00 UTC

Mar-23 @ 12:00 UTC

Mar-23@
15:00 UTC

Mar-23 @ 15:00 UTC

PABR 231120Z 2312/2412 08022KT 6SM BLSN BKN015 BKN100
Wind
  • 080° at 22 KTS
Conditions
Blowing Snow
Cloud Levels
  • Broken at 1,500' AGL
  • Broken at 10,000' AGL

Mar-23@
15:00 UTC

Mar-23 @ 15:00 UTC

Mar-23@
20:00 UTC

Mar-23 @ 20:00 UTC

FM231500 08015KT P6SM BKN015 BKN100

From

From Standard forecast or significant change

Wind
  • 080° at 15 KTS
Cloud Levels
  • Broken at 1,500' AGL
  • Broken at 10,000' AGL

Mar-23@
20:00 UTC

Mar-23 @ 20:00 UTC

Mar-24@
12:00 UTC

Mar-24 @ 12:00 UTC

FM232000 08012KT P6SM SCT015 BKN100

From

From Standard forecast or significant change

Wind
  • 080° at 12 KTS
Cloud Levels
  • Scattered at 1,500' AGL
  • Broken at 10,000' AGL